createdAt,value
2017-09-12T00:01:51.379Z,13.49
2017-09-12T00:04:19.800Z,13.52
2017-09-12T00:06:48.237Z,13.54
2017-09-12T00:09:16.655Z,13.56
2017-09-12T00:11:45.859Z,13.58
2017-09-12T00:14:14.275Z,13.57
2017-09-12T00:16:42.725Z,13.57
2017-09-12T00:19:11.208Z,13.61
2017-09-12T00:21:39.646Z,13.65
2017-09-12T00:24:08.063Z,13.67
2017-09-12T00:26:36.550Z,13.66
2017-09-12T00:29:04.971Z,13.71
2017-09-12T00:31:33.411Z,13.72
2017-09-12T00:34:01.831Z,13.78
2017-09-12T00:36:30.384Z,13.79
2017-09-12T00:38:58.799Z,13.83
2017-09-12T00:41:27.244Z,13.85
2017-09-12T00:43:55.669Z,13.88
2017-09-12T00:46:24.116Z,13.92
2017-09-12T00:48:52.545Z,13.94
2017-09-12T00:51:20.988Z,13.94
2017-09-12T00:53:49.411Z,13.94
2017-09-12T00:56:18.620Z,13.89
2017-09-12T00:58:47.838Z,13.88
2017-09-12T01:01:16.332Z,13.80
2017-09-12T01:03:44.803Z,13.76
2017-09-12T01:06:13.271Z,13.74
2017-09-12T01:08:42.463Z,13.72
2017-09-12T01:11:11.647Z,13.71
2017-09-12T01:13:40.084Z,13.66
2017-09-12T01:16:08.508Z,13.64
2017-09-12T01:18:36.946Z,13.60
2017-09-12T01:21:05.411Z,13.60
2017-09-12T01:23:33.847Z,13.61
2017-09-12T01:26:02.372Z,13.59
2017-09-12T01:28:30.807Z,13.58
2017-09-12T01:30:59.335Z,13.54
2017-09-12T01:33:27.814Z,13.51
2017-09-12T01:35:56.301Z,13.50
2017-09-12T01:38:24.780Z,13.46
2017-09-12T01:40:53.199Z,13.45
2017-09-12T01:43:21.748Z,13.43
2017-09-12T01:45:50.163Z,13.44
2017-09-12T01:48:18.607Z,13.45
2017-09-12T01:50:47.092Z,13.45
2017-09-12T01:53:15.531Z,13.44
2017-09-12T01:55:44.055Z,13.41
2017-09-12T01:58:12.494Z,13.38
2017-09-12T02:00:40.913Z,13.37
2017-09-12T02:03:09.358Z,13.36
2017-09-12T02:05:37.780Z,13.35
2017-09-12T02:08:06.219Z,13.31
2017-09-12T02:10:34.740Z,13.32
2017-09-12T02:13:03.183Z,13.31
2017-09-12T02:15:31.604Z,13.28
2017-09-12T02:18:00.037Z,13.26
2017-09-12T02:20:28.455Z,13.23
2017-09-12T02:22:57.660Z,13.24
2017-09-12T02:25:26.144Z,13.22
2017-09-12T02:27:54.586Z,13.21
2017-09-12T02:30:24.747Z,13.18
2017-09-12T02:32:53.185Z,13.20
2017-09-12T02:35:21.604Z,13.19
2017-09-12T02:37:50.044Z,13.18
2017-09-12T02:40:18.464Z,13.18
2017-09-12T02:42:46.957Z,13.12
2017-09-12T02:45:15.380Z,13.05
2017-09-12T02:47:43.805Z,13.01
2017-09-12T02:50:13.119Z,12.97
2017-09-12T02:52:41.548Z,12.93
2017-09-12T02:55:10.080Z,12.90
2017-09-12T02:57:38.494Z,12.92
2017-09-12T03:00:06.930Z,12.89
2017-09-12T03:02:36.111Z,12.88
2017-09-12T03:05:05.344Z,12.87
2017-09-12T03:07:33.823Z,12.84
2017-09-12T03:10:02.308Z,12.84
2017-09-12T03:12:30.723Z,12.81
2017-09-12T03:14:59.262Z,12.79
2017-09-12T03:17:27.687Z,12.76
2017-09-12T03:19:56.127Z,12.78
2017-09-12T03:22:24.610Z,12.75
2017-09-12T03:24:53.047Z,12.72
2017-09-12T03:27:21.463Z,12.69
2017-09-12T03:29:50.671Z,12.67
2017-09-12T03:32:19.089Z,12.61
2017-09-12T03:34:47.531Z,12.59
2017-09-12T03:37:15.947Z,12.57
2017-09-12T03:39:44.387Z,12.54
2017-09-12T03:42:12.803Z,12.52
2017-09-12T03:44:41.243Z,12.54
2017-09-12T03:47:10.451Z,12.51
2017-09-12T03:49:38.891Z,12.49
2017-09-12T03:52:07.308Z,12.49
2017-09-12T03:54:36.519Z,12.48
2017-09-12T03:57:04.943Z,12.50
2017-09-12T03:59:33.484Z,12.52
2017-09-12T04:02:01.907Z,12.58
2017-09-12T04:04:30.347Z,12.64
2017-09-12T04:06:58.824Z,12.69
2017-09-12T04:09:27.259Z,12.73
2017-09-12T04:11:55.680Z,12.74
2017-09-12T04:14:24.119Z,12.75
2017-09-12T04:16:52.538Z,12.76
2017-09-12T04:19:21.747Z,12.77
2017-09-12T04:21:50.165Z,12.77
2017-09-12T04:24:18.602Z,12.83
2017-09-12T04:26:47.019Z,12.86
2017-09-12T04:29:15.459Z,12.88
2017-09-12T04:31:44.667Z,12.91
2017-09-12T04:34:13.152Z,12.90
2017-09-12T04:36:41.576Z,12.92
2017-09-12T04:39:10.006Z,12.93
2017-09-12T04:41:38.435Z,12.94
2017-09-12T04:44:06.877Z,12.90
2017-09-12T04:46:35.299Z,12.90
2017-09-12T04:49:03.716Z,12.84
2017-09-12T04:51:32.928Z,12.84
2017-09-12T04:54:01.352Z,12.81
2017-09-12T04:56:29.795Z,12.83
2017-09-12T04:58:58.217Z,12.83
2017-09-12T05:01:26.656Z,12.88
2017-09-12T05:03:55.075Z,12.93
2017-09-12T05:06:23.516Z,13.02
2017-09-12T05:08:51.940Z,13.05
2017-09-12T05:11:20.488Z,13.09
2017-09-12T05:13:48.907Z,13.20
2017-09-12T05:16:17.347Z,13.16
2017-09-12T05:18:45.832Z,13.21
2017-09-12T05:21:14.303Z,13.25
2017-09-12T05:23:42.724Z,13.28
2017-09-12T05:26:11.164Z,13.32
2017-09-12T05:28:39.583Z,13.34
2017-09-12T05:31:08.136Z,13.34
2017-09-12T05:33:36.615Z,13.36
2017-09-12T05:36:05.061Z,13.38
2017-09-12T05:38:33.488Z,13.38
2017-09-12T05:41:01.931Z,13.45
2017-09-12T05:43:31.123Z,13.53
2017-09-12T05:46:01.176Z,13.57
2017-09-12T05:48:29.596Z,13.63
2017-09-12T05:50:58.139Z,13.63
2017-09-12T05:53:26.560Z,13.69
2017-09-12T05:55:55.103Z,13.67
2017-09-12T05:58:23.523Z,13.81
2017-09-12T06:00:52.068Z,13.86
2017-09-12T06:03:20.551Z,13.92
2017-09-12T06:05:48.991Z,13.93
2017-09-12T06:08:17.415Z,14.03
2017-09-12T06:10:45.856Z,14.13
2017-09-12T06:13:14.796Z,14.10
2017-09-12T06:15:43.266Z,14.18
2017-09-12T06:18:11.691Z,14.14
2017-09-12T06:20:40.132Z,14.26
2017-09-12T06:23:08.551Z,14.29
2017-09-12T06:25:36.983Z,14.31
2017-09-12T06:28:06.191Z,14.41
2017-09-12T06:30:34.634Z,14.44
2017-09-12T06:33:03.051Z,14.50
2017-09-12T06:35:31.487Z,14.55
2017-09-12T06:38:00.016Z,14.55
2017-09-12T06:40:28.455Z,14.51
2017-09-12T06:42:56.980Z,14.56
2017-09-12T06:45:25.463Z,14.71
2017-09-12T06:47:53.879Z,14.72
2017-09-12T06:50:22.298Z,14.65
2017-09-12T06:52:51.509Z,14.64
2017-09-12T06:55:20.704Z,14.80
2017-09-12T06:57:49.916Z,14.72
2017-09-12T07:00:18.340Z,14.78
2017-09-12T07:02:46.787Z,14.82
2017-09-12T07:05:15.209Z,14.90
2017-09-12T07:07:43.651Z,14.97
2017-09-12T07:10:12.076Z,15.05
2017-09-12T07:12:40.607Z,14.97
2017-09-12T07:15:09.036Z,14.99
2017-09-12T07:17:37.488Z,15.14
2017-09-12T07:20:05.912Z,15.25
2017-09-12T07:22:34.435Z,15.68
2017-09-12T07:25:02.860Z,15.84
2017-09-12T07:27:31.304Z,16.04
2017-09-12T07:29:59.735Z,16.08
2017-09-12T07:32:28.188Z,16.41
2017-09-12T07:34:56.663Z,16.33
2017-09-12T07:37:25.124Z,16.37
2017-09-12T07:39:53.548Z,16.33
2017-09-12T07:42:21.991Z,16.37
2017-09-12T07:44:50.412Z,16.13
2017-09-12T07:47:18.947Z,16.28
2017-09-12T07:49:47.372Z,16.23
2017-09-12T07:52:15.810Z,16.33
2017-09-12T07:54:44.291Z,16.47
2017-09-12T07:57:12.776Z,16.36
2017-09-12T07:59:41.204Z,16.52
2017-09-12T08:02:09.731Z,16.79
2017-09-12T08:04:38.151Z,16.78
2017-09-12T08:07:06.599Z,16.62
2017-09-12T08:09:35.020Z,16.58
2017-09-12T08:12:03.463Z,16.64
2017-09-12T08:14:31.979Z,16.51
2017-09-12T08:17:00.403Z,16.64
2017-09-12T08:19:29.591Z,16.61
2017-09-12T08:21:58.807Z,16.62
2017-09-12T08:24:27.996Z,16.69
2017-09-12T08:26:57.324Z,16.82
2017-09-12T08:29:25.752Z,16.88
2017-09-12T08:31:54.287Z,17.02
2017-09-12T08:34:22.711Z,17.12
2017-09-12T08:36:51.252Z,17.21
2017-09-12T08:39:19.671Z,17.14
2017-09-12T08:41:48.112Z,16.97
2017-09-12T08:44:16.535Z,16.97
2017-09-12T08:46:44.985Z,17.08
2017-09-12T08:49:13.416Z,17.14
2017-09-12T08:51:41.838Z,17.25
2017-09-12T08:54:10.283Z,17.36
2017-09-12T08:56:39.476Z,17.35
2017-09-12T08:59:07.919Z,17.32
2017-09-12T09:01:36.379Z,17.26
2017-09-12T09:04:04.824Z,17.57
2017-09-12T09:06:33.252Z,17.65
2017-09-12T09:09:01.694Z,17.56
2017-09-12T09:11:30.938Z,17.62
2017-09-12T09:13:59.384Z,17.86
2017-09-12T09:16:28.579Z,17.98
2017-09-12T09:18:57.791Z,18.29
2017-09-12T09:21:26.211Z,18.38
2017-09-12T09:23:54.743Z,18.24
2017-09-12T09:26:23.935Z,18.35
2017-09-12T09:28:53.165Z,18.30
2017-09-12T09:31:21.596Z,18.22
2017-09-12T09:33:50.043Z,18.07
2017-09-12T09:36:18.471Z,18.14
2017-09-12T09:38:47.687Z,18.04
2017-09-12T09:41:16.870Z,17.99
2017-09-12T09:43:46.104Z,18.05
2017-09-12T09:46:14.523Z,17.88
2017-09-12T09:48:42.967Z,17.73
2017-09-12T09:51:11.388Z,17.91
2017-09-12T09:53:39.831Z,17.96
2017-09-12T09:56:08.252Z,17.90
2017-09-12T09:58:37.252Z,17.93
2017-09-12T10:01:05.680Z,18.17
2017-09-12T10:03:34.165Z,18.35
2017-09-12T10:06:02.583Z,18.46
2017-09-12T10:08:31.127Z,18.32
2017-09-12T10:10:59.612Z,18.23
2017-09-12T10:13:28.075Z,18.14
2017-09-12T10:15:56.508Z,18.16
2017-09-12T10:18:24.947Z,18.24
2017-09-12T10:20:53.363Z,18.40
2017-09-12T10:23:21.911Z,18.43
2017-09-12T10:25:50.395Z,18.41
2017-09-12T10:28:18.875Z,18.43
2017-09-12T10:30:47.360Z,18.75
2017-09-12T10:33:15.837Z,18.55
2017-09-12T10:35:44.260Z,18.66
2017-09-12T10:38:12.704Z,18.99
2017-09-12T10:40:41.127Z,19.26
2017-09-12T10:43:09.569Z,19.36
2017-09-12T10:45:37.992Z,19.63
2017-09-12T10:48:06.440Z,19.59
2017-09-12T10:50:34.907Z,19.86
2017-09-12T10:53:03.331Z,19.91
2017-09-12T10:55:31.876Z,20.00
2017-09-12T10:58:00.306Z,19.97
2017-09-12T11:00:29.506Z,19.49
2017-09-12T11:02:57.931Z,19.67
2017-09-12T11:05:26.380Z,19.61
2017-09-12T11:07:55.572Z,19.67
2017-09-12T11:10:24.014Z,19.78
2017-09-12T11:12:52.435Z,19.72
2017-09-12T11:15:21.644Z,19.67
2017-09-12T11:17:50.836Z,19.64
2017-09-12T11:20:20.787Z,19.67
2017-09-12T11:22:49.210Z,19.33
2017-09-12T11:25:17.755Z,19.30
2017-09-12T11:27:46.239Z,19.20
2017-09-12T11:30:14.687Z,19.31
2017-09-12T11:32:43.892Z,19.08
2017-09-12T11:35:13.108Z,19.10
2017-09-12T11:37:41.599Z,18.93
2017-09-12T11:40:10.079Z,18.74
2017-09-12T11:42:38.503Z,18.96
2017-09-12T11:45:06.952Z,19.25
2017-09-12T11:47:35.384Z,19.44
2017-09-12T11:50:04.625Z,19.10
2017-09-12T11:52:33.108Z,19.12
2017-09-12T11:55:01.555Z,19.04
2017-09-12T11:57:30.756Z,18.97
2017-09-12T11:59:59.963Z,19.04
2017-09-12T12:02:29.179Z,19.09
2017-09-12T12:04:57.619Z,19.24
2017-09-12T12:07:26.869Z,19.49
2017-09-12T12:09:55.315Z,19.48
2017-09-12T12:12:24.503Z,19.59
2017-09-12T12:14:52.980Z,19.57
2017-09-12T12:17:21.406Z,20.08
2017-09-12T12:19:49.855Z,20.15
2017-09-12T12:22:18.281Z,20.13
2017-09-12T12:24:46.747Z,19.82
2017-09-12T12:27:15.240Z,19.91
2017-09-12T12:29:43.688Z,19.70
2017-09-12T12:32:13.119Z,19.86
2017-09-12T12:34:41.599Z,19.64
2017-09-12T12:37:10.100Z,19.67
2017-09-12T12:39:38.543Z,19.75
2017-09-12T12:42:07.731Z,19.82
2017-09-12T12:44:36.947Z,19.85
2017-09-12T12:47:06.921Z,19.85
2017-09-12T12:49:35.367Z,20.11
2017-09-12T12:52:03.843Z,19.82
2017-09-12T12:54:32.287Z,19.77
2017-09-12T12:57:01.484Z,19.81
2017-09-12T12:59:30.715Z,19.75
2017-09-12T13:01:59.203Z,20.24
2017-09-12T13:04:27.631Z,20.36
2017-09-12T13:06:56.167Z,20.50
2017-09-12T13:09:24.595Z,20.28
2017-09-12T13:11:53.040Z,20.28
2017-09-12T13:14:21.464Z,19.99
2017-09-12T13:16:49.907Z,19.77
2017-09-12T13:19:18.339Z,19.66
2017-09-12T13:21:47.560Z,19.73
2017-09-12T13:24:16.771Z,19.60
2017-09-12T13:26:45.223Z,19.60
2017-09-12T13:29:14.410Z,19.81
2017-09-12T13:31:44.358Z,19.85
2017-09-12T13:34:12.856Z,19.90
2017-09-12T13:36:41.299Z,19.65
2017-09-12T13:39:10.651Z,19.43
2017-09-12T13:41:39.091Z,19.41
2017-09-12T13:44:08.279Z,19.33
2017-09-12T13:46:37.495Z,19.00
2017-09-12T13:49:06.707Z,18.74
2017-09-12T13:51:35.151Z,18.29
2017-09-12T13:54:03.667Z,17.99
2017-09-12T13:56:32.114Z,17.89
2017-09-12T13:59:00.536Z,17.81
2017-09-12T14:01:28.979Z,17.86
2017-09-12T14:03:57.399Z,18.08
2017-09-12T14:06:25.879Z,18.37
2017-09-12T14:08:54.294Z,18.45
2017-09-12T14:11:22.743Z,18.51
2017-09-12T14:13:51.172Z,18.61
2017-09-12T14:16:19.721Z,18.71
2017-09-12T14:18:48.143Z,18.98
2017-09-12T14:21:16.584Z,18.94
2017-09-12T14:23:45.011Z,19.04
2017-09-12T14:26:14.232Z,18.86
2017-09-12T14:28:43.423Z,18.90
2017-09-12T14:31:12.635Z,18.59
2017-09-12T14:33:41.843Z,18.42
2017-09-12T14:36:10.296Z,18.21
2017-09-12T14:38:39.495Z,17.91
2017-09-12T14:41:08.724Z,17.89
2017-09-12T14:43:37.152Z,17.84
2017-09-12T14:46:05.601Z,17.81
2017-09-12T14:48:34.022Z,17.82
2017-09-12T14:51:02.462Z,18.18
2017-09-12T14:53:30.892Z,18.61
2017-09-12T14:56:00.128Z,18.50
2017-09-12T14:58:28.607Z,18.25
2017-09-12T15:00:57.042Z,18.42
2017-09-12T15:03:25.467Z,18.57
2017-09-12T15:05:53.916Z,18.65
2017-09-12T15:08:23.847Z,18.57
2017-09-12T15:10:53.075Z,18.80
2017-09-12T15:13:21.503Z,18.79
2017-09-12T15:15:49.935Z,18.78
2017-09-12T15:18:18.385Z,18.84
2017-09-12T15:20:47.571Z,18.75
2017-09-12T15:23:16.091Z,18.73
2017-09-12T15:25:44.511Z,18.61
2017-09-12T15:28:12.951Z,18.58
2017-09-12T15:30:41.439Z,18.58
2017-09-12T15:33:09.914Z,18.54
2017-09-12T15:35:38.340Z,18.56
2017-09-12T15:38:06.884Z,18.65
2017-09-12T15:40:35.374Z,18.63
2017-09-12T15:43:03.847Z,18.69
2017-09-12T15:45:32.272Z,18.86
2017-09-12T15:48:00.724Z,18.79
2017-09-12T15:50:29.148Z,18.60
2017-09-12T15:52:57.599Z,18.54
2017-09-12T15:55:26.050Z,18.49
2017-09-12T15:57:54.491Z,18.30
2017-09-12T16:00:23.688Z,18.30
2017-09-12T16:02:53.027Z,18.22
2017-09-12T16:05:21.516Z,18.19
2017-09-12T16:07:49.964Z,18.21
2017-09-12T16:10:19.151Z,18.18
2017-09-12T16:12:47.596Z,18.13
2017-09-12T16:15:16.024Z,18.11
2017-09-12T16:17:45.235Z,18.13
2017-09-12T16:20:14.423Z,18.13
2017-09-12T16:22:43.632Z,18.06
2017-09-12T16:25:12.827Z,17.97
2017-09-12T16:27:42.152Z,17.99
2017-09-12T16:30:10.571Z,17.96
2017-09-12T16:32:39.011Z,17.77
2017-09-12T16:35:07.490Z,17.64
2017-09-12T16:37:35.907Z,17.52
2017-09-12T16:40:04.361Z,17.47
2017-09-12T16:42:32.839Z,17.37
2017-09-12T16:45:01.292Z,17.32
2017-09-12T16:47:30.488Z,17.20
2017-09-12T16:49:59.716Z,17.09
2017-09-12T16:52:28.199Z,17.06
2017-09-12T16:54:56.683Z,16.96
2017-09-12T16:57:25.162Z,16.88
2017-09-12T16:59:53.646Z,16.83
2017-09-12T17:02:22.068Z,16.85
2017-09-12T17:04:50.511Z,16.76
2017-09-12T17:07:18.987Z,16.74
2017-09-12T17:09:47.471Z,16.75
2017-09-12T17:12:15.896Z,16.77
2017-09-12T17:14:44.439Z,16.73
2017-09-12T17:17:12.928Z,16.75
2017-09-12T17:19:41.372Z,16.72
2017-09-12T17:22:10.569Z,16.51
2017-09-12T17:24:39.795Z,16.02
2017-09-12T17:27:08.225Z,15.80
2017-09-12T17:29:36.672Z,15.50
2017-09-12T17:32:05.101Z,15.17
2017-09-12T17:34:34.319Z,14.91
2017-09-12T17:37:03.511Z,14.69
2017-09-12T17:39:32.723Z,14.61
2017-09-12T17:42:01.907Z,14.55
2017-09-12T17:44:31.303Z,14.49
2017-09-12T17:46:59.823Z,14.47
2017-09-12T17:49:28.238Z,14.36
2017-09-12T17:51:56.788Z,14.29
2017-09-12T17:54:25.272Z,14.25
2017-09-12T17:56:53.723Z,14.26
2017-09-12T17:59:22.916Z,14.24
2017-09-12T18:01:52.131Z,14.22
2017-09-12T18:04:21.652Z,14.25
2017-09-12T18:06:50.096Z,14.15
2017-09-12T18:09:18.620Z,14.11
2017-09-12T18:11:47.107Z,14.00
2017-09-12T18:14:15.588Z,14.01
2017-09-12T18:16:44.035Z,13.94
2017-09-12T18:19:13.227Z,13.90
2017-09-12T18:21:41.748Z,13.91
2017-09-12T18:24:10.172Z,13.86
2017-09-12T18:26:38.727Z,13.76
2017-09-12T18:29:07.191Z,13.67
2017-09-12T18:31:35.639Z,13.67
2017-09-12T18:34:04.161Z,13.64
2017-09-12T18:36:32.599Z,13.64
2017-09-12T18:39:01.020Z,13.62
2017-09-12T18:41:29.456Z,13.61
2017-09-12T18:43:57.983Z,13.63
2017-09-12T18:46:26.459Z,13.57
2017-09-12T18:48:54.943Z,13.52
2017-09-12T18:51:23.364Z,13.51
2017-09-12T18:53:51.904Z,13.45
2017-09-12T18:56:20.324Z,13.43
2017-09-12T18:58:48.868Z,13.39
2017-09-12T19:01:17.295Z,13.33
2017-09-12T19:03:45.739Z,13.28
2017-09-12T19:06:14.211Z,13.27
2017-09-12T19:08:42.655Z,13.24
2017-09-12T19:11:11.075Z,13.22
2017-09-12T19:13:39.509Z,13.20
2017-09-12T19:16:07.935Z,13.06
2017-09-12T19:18:36.415Z,13.03
2017-09-12T19:21:04.836Z,13.03
2017-09-12T19:23:34.003Z,12.97
2017-09-12T19:26:02.723Z,12.96
2017-09-12T19:28:31.151Z,12.92
2017-09-12T19:31:00.385Z,12.86
2017-09-12T19:33:28.851Z,12.82
2017-09-12T19:35:57.300Z,12.84
2017-09-12T19:38:26.532Z,12.80
2017-09-12T19:40:54.979Z,12.77
2017-09-12T19:43:24.166Z,12.72
2017-09-12T19:45:52.695Z,12.69
2017-09-12T19:48:21.115Z,12.68
2017-09-12T19:50:49.659Z,12.70
2017-09-12T19:53:18.084Z,12.70
2017-09-12T19:55:46.620Z,12.70
2017-09-12T19:58:15.039Z,12.68
2017-09-12T20:00:43.484Z,12.65
2017-09-12T20:03:11.903Z,12.65
2017-09-12T20:05:40.357Z,12.65
2017-09-12T20:08:08.783Z,12.63
2017-09-12T20:10:37.223Z,12.64
2017-09-12T20:13:05.644Z,12.62
2017-09-12T20:15:34.102Z,12.57
2017-09-12T20:18:02.528Z,12.55
2017-09-12T20:20:31.748Z,12.54
2017-09-12T20:23:00.227Z,12.51
2017-09-12T20:25:28.715Z,12.50
2017-09-12T20:27:57.192Z,12.47
2017-09-12T20:30:25.679Z,12.46
2017-09-12T20:32:54.118Z,12.44
2017-09-12T20:35:22.636Z,12.45
2017-09-12T20:37:51.083Z,12.39
2017-09-12T20:40:19.507Z,12.40
2017-09-12T20:42:47.983Z,12.39
2017-09-12T20:45:16.403Z,12.36
2017-09-12T20:47:44.856Z,12.34
2017-09-12T20:50:13.275Z,12.32
2017-09-12T20:52:41.803Z,12.32
2017-09-12T20:55:10.287Z,12.31
2017-09-12T20:57:38.791Z,12.28
2017-09-12T21:00:07.255Z,12.28
2017-09-12T21:02:35.695Z,12.26
2017-09-12T21:05:04.115Z,12.24
2017-09-12T21:07:32.599Z,12.20
2017-09-12T21:10:01.024Z,12.19
2017-09-12T21:12:29.463Z,12.18
2017-09-12T21:14:57.878Z,12.15
2017-09-12T21:17:26.348Z,12.15
2017-09-12T21:19:54.807Z,12.15
2017-09-12T21:22:23.236Z,12.12
2017-09-12T21:24:51.675Z,12.12
2017-09-12T21:27:20.124Z,12.09
2017-09-12T21:29:49.337Z,12.10
2017-09-12T21:32:17.760Z,12.07
2017-09-12T21:34:46.314Z,12.08
2017-09-12T21:37:14.739Z,12.07
2017-09-12T21:39:43.184Z,12.06
2017-09-12T21:42:11.660Z,12.03
2017-09-12T21:44:40.108Z,12.03
2017-09-12T21:47:09.299Z,12.00
2017-09-12T21:49:37.742Z,12.00
2017-09-12T21:52:06.164Z,11.97
2017-09-12T21:54:35.379Z,11.95
2017-09-12T21:57:04.595Z,11.92
2017-09-12T21:59:33.079Z,11.88
2017-09-12T22:02:01.499Z,11.88
2017-09-12T22:04:30.035Z,11.85
2017-09-12T22:06:58.459Z,11.86
2017-09-12T22:09:26.999Z,11.83
2017-09-12T22:11:55.423Z,11.81
2017-09-12T22:14:23.838Z,11.79
2017-09-12T22:16:53.472Z,11.77
2017-09-12T22:19:21.952Z,11.76
2017-09-12T22:21:50.439Z,11.73
2017-09-12T22:24:18.859Z,11.73
2017-09-12T22:26:47.295Z,11.73
2017-09-12T22:29:15.783Z,11.70
2017-09-12T22:31:44.261Z,11.67
2017-09-12T22:34:12.679Z,11.64
2017-09-12T22:36:41.116Z,11.60
2017-09-12T22:39:09.642Z,11.60
2017-09-12T22:41:38.099Z,11.59
2017-09-12T22:44:06.529Z,11.62
2017-09-12T22:46:34.971Z,11.58
2017-09-12T22:49:03.396Z,11.61
2017-09-12T22:51:31.844Z,11.61
2017-09-12T22:54:00.291Z,11.61
2017-09-12T22:56:28.739Z,11.61
2017-09-12T22:58:57.163Z,11.57
2017-09-12T23:01:25.602Z,11.57
2017-09-12T23:03:54.030Z,11.55
2017-09-12T23:06:22.575Z,11.56
2017-09-12T23:08:51.768Z,11.52
2017-09-12T23:11:21.001Z,11.54
2017-09-12T23:13:49.443Z,11.49
2017-09-12T23:16:17.968Z,11.47
2017-09-12T23:18:46.415Z,11.46
2017-09-12T23:21:15.602Z,11.45
2017-09-12T23:23:44.041Z,11.41
2017-09-12T23:26:12.507Z,11.41
2017-09-12T23:28:40.946Z,11.41
2017-09-12T23:31:09.363Z,11.39
2017-09-12T23:33:37.853Z,11.37
2017-09-12T23:36:06.275Z,11.35
2017-09-12T23:38:34.719Z,11.33
2017-09-12T23:41:03.135Z,11.31
2017-09-12T23:43:31.588Z,11.30
2017-09-12T23:46:00.015Z,11.30
2017-09-12T23:48:28.471Z,11.30
2017-09-12T23:50:56.891Z,11.31
2017-09-12T23:53:26.096Z,11.29
2017-09-12T23:55:55.288Z,11.29
2017-09-12T23:58:24.499Z,11.26
